Terminal Aerodrome Forecast
Issued by NWS

Home | Current Version | Previous Version | Text Only | Print | Product List | Glossary On
Versions: 1 2 3 4 5 6 7 8 9 10 11 12 13 14 15 16 17
000
FTUS46 KLOX 210500
TAFVNY
TAF
KVNY 210523Z 2106/2206 VRB03KT P6SM SKC
     FM211000 VRB03KT 6SM BR OVC012
     FM211700 VRB03KT P6SM BKN022
     FM212000 15009KT P6SM SKC
     FM220400 VRB03KT P6SM SKC=

USA.gov is the U.S. government's official web portal to all federal, state and local government web resources and services.